createdAt,value
2022-11-03T00:02:10.744Z,9.50
2022-11-03T00:04:38.987Z,9.50
2022-11-03T00:07:09.570Z,9.40
2022-11-03T00:09:37.743Z,9.30
2022-11-03T00:12:06.222Z,9.30
2022-11-03T00:14:34.334Z,9.30
2022-11-03T00:17:04.049Z,9.20
2022-11-03T00:19:32.260Z,9.10
2022-11-03T00:22:00.678Z,9.00
2022-11-03T00:24:28.831Z,9.00
2022-11-03T00:26:57.008Z,9.10
2022-11-03T00:29:25.933Z,9.00
2022-11-03T00:31:54.186Z,9.00
2022-11-03T00:34:23.686Z,9.20
2022-11-03T00:36:51.896Z,9.00
2022-11-03T00:39:22.710Z,8.90
2022-11-03T00:41:50.919Z,8.90
2022-11-03T00:44:24.194Z,8.80
2022-11-03T00:46:52.639Z,8.80
2022-11-03T00:49:20.808Z,8.80
2022-11-03T00:51:53.216Z,8.70
2022-11-03T00:54:21.457Z,8.70
2022-11-03T00:56:49.563Z,8.70
2022-11-03T00:59:17.822Z,8.70
2022-11-03T01:01:47.757Z,8.60
2022-11-03T01:04:36.527Z,8.60
2022-11-03T01:07:08.617Z,8.50
2022-11-03T01:09:38.898Z,8.50
2022-11-03T01:12:09.645Z,8.40
2022-11-03T01:14:40.393Z,8.40
2022-11-03T01:17:10.217Z,8.40
2022-11-03T01:19:38.451Z,8.30
2022-11-03T01:22:11.095Z,8.30
2022-11-03T01:24:40.044Z,8.30
2022-11-03T01:27:08.273Z,8.30
2022-11-03T01:29:36.566Z,8.20
2022-11-03T01:32:04.791Z,8.30
2022-11-03T01:34:33.127Z,8.20
2022-11-03T01:37:01.324Z,8.20
2022-11-03T01:39:31.078Z,8.20
2022-11-03T01:41:59.337Z,8.20
2022-11-03T01:44:34.436Z,8.20
2022-11-03T01:47:17.549Z,8.10
2022-11-03T01:49:49.889Z,8.00
2022-11-03T01:52:23.552Z,8.00
2022-11-03T01:54:58.729Z,8.00
2022-11-03T01:57:30.328Z,8.00
2022-11-03T02:00:00.070Z,8.00
2022-11-03T02:02:29.203Z,8.00
2022-11-03T02:05:01.288Z,8.00
2022-11-03T02:07:34.850Z,8.00
2022-11-03T02:10:04.982Z,8.00
2022-11-03T02:12:34.080Z,8.00
2022-11-03T02:15:06.349Z,7.90
2022-11-03T02:17:35.473Z,7.80
2022-11-03T02:20:07.066Z,7.80
2022-11-03T02:23:01.247Z,7.80
2022-11-03T02:25:41.502Z,7.80
2022-11-03T02:28:10.280Z,7.80
2022-11-03T02:30:43.030Z,7.80
2022-11-03T02:33:22.090Z,7.70
2022-11-03T02:35:54.269Z,7.60
2022-11-03T02:38:27.074Z,7.80
2022-11-03T02:41:00.154Z,7.80
2022-11-03T02:43:30.340Z,7.70
2022-11-03T02:45:58.469Z,7.70
2022-11-03T02:48:27.016Z,7.60
2022-11-03T02:50:56.204Z,7.70
2022-11-03T02:53:24.439Z,7.60
2022-11-03T02:56:01.949Z,7.70
2022-11-03T02:58:35.758Z,7.60
2022-11-03T03:01:15.279Z,7.60
2022-11-03T03:03:49.208Z,7.40
2022-11-03T03:06:23.575Z,7.50
2022-11-03T03:08:56.772Z,7.50
2022-11-03T03:11:38.866Z,7.50
2022-11-03T03:14:11.957Z,7.50
2022-11-03T03:16:49.426Z,7.50
2022-11-03T03:19:24.701Z,7.50
2022-11-03T03:21:55.591Z,7.50
2022-11-03T03:24:30.972Z,7.40
2022-11-03T03:27:03.709Z,7.30
2022-11-03T03:29:37.701Z,7.50
2022-11-03T03:32:10.816Z,7.30
2022-11-03T03:34:43.030Z,7.30
2022-11-03T03:37:12.947Z,7.40
2022-11-03T03:39:43.590Z,7.30
2022-11-03T03:42:15.281Z,7.30
2022-11-03T03:44:44.718Z,7.20
2022-11-03T03:47:19.129Z,7.30
2022-11-03T03:49:47.429Z,7.10
2022-11-03T03:52:16.177Z,7.10
2022-11-03T03:54:44.395Z,7.10
2022-11-03T03:57:16.688Z,7.00
2022-11-03T03:59:44.932Z,7.00
2022-11-03T04:02:13.803Z,7.00
2022-11-03T04:04:42.122Z,7.00
2022-11-03T04:07:28.135Z,7.00
2022-11-03T04:09:56.471Z,7.00
2022-11-03T04:12:43.354Z,7.00
2022-11-03T04:15:31.446Z,7.00
2022-11-03T04:18:17.176Z,7.00
2022-11-03T04:21:02.581Z,7.10
2022-11-03T04:23:30.798Z,7.00
2022-11-03T04:25:58.958Z,7.00
2022-11-03T04:28:28.670Z,7.00
2022-11-03T04:30:59.478Z,7.00
2022-11-03T04:33:30.135Z,6.90
2022-11-03T04:36:00.435Z,6.90
2022-11-03T04:38:30.392Z,6.90
2022-11-03T04:41:00.795Z,6.80
2022-11-03T04:43:36.086Z,6.80
2022-11-03T04:46:04.812Z,6.80
2022-11-03T04:48:34.828Z,6.80
2022-11-03T04:51:12.128Z,6.80
2022-11-03T04:53:45.245Z,6.80
2022-11-03T04:56:16.665Z,6.80
2022-11-03T04:58:48.064Z,6.80
2022-11-03T05:01:23.739Z,6.70
2022-11-03T05:03:55.494Z,6.80
2022-11-03T05:06:25.464Z,6.70
2022-11-03T05:08:58.044Z,6.70
2022-11-03T05:11:32.366Z,6.60
2022-11-03T05:14:05.311Z,6.60
2022-11-03T05:16:35.033Z,6.60
2022-11-03T05:19:03.409Z,6.50
2022-11-03T05:21:31.619Z,6.50
2022-11-03T05:24:06.939Z,6.50
2022-11-03T05:26:36.391Z,6.50
2022-11-03T05:29:14.710Z,6.50
2022-11-03T05:31:44.733Z,6.50
2022-11-03T05:34:29.570Z,6.50
2022-11-03T05:36:59.544Z,6.50
2022-11-03T05:39:31.522Z,6.40
2022-11-03T05:42:01.019Z,6.40
2022-11-03T05:44:36.973Z,6.50
2022-11-03T05:47:13.380Z,6.40
2022-11-03T05:49:42.032Z,6.40
2022-11-03T05:52:19.359Z,6.40
2022-11-03T05:54:47.804Z,6.40
2022-11-03T05:57:17.223Z,6.50
2022-11-03T05:59:48.465Z,6.50
2022-11-03T06:02:31.158Z,6.50
2022-11-03T06:04:59.479Z,6.50
2022-11-03T06:07:30.108Z,6.50
2022-11-03T06:09:59.404Z,6.50
2022-11-03T06:12:27.841Z,6.60
2022-11-03T06:14:57.437Z,6.70
2022-11-03T06:17:28.617Z,6.80
2022-11-03T06:19:59.714Z,6.90
2022-11-03T06:22:30.625Z,6.90
2022-11-03T06:25:02.609Z,7.30
2022-11-03T06:27:33.055Z,7.40
2022-11-03T06:30:13.728Z,7.40
2022-11-03T06:32:41.987Z,7.50
2022-11-03T06:35:12.767Z,7.20
2022-11-03T06:37:41.133Z,7.30
2022-11-03T06:40:34.918Z,7.40
2022-11-03T06:43:15.884Z,7.40
2022-11-03T06:45:51.114Z,7.50
2022-11-03T06:48:25.149Z,7.50
2022-11-03T06:50:54.330Z,7.60
2022-11-03T06:53:27.004Z,7.70
2022-11-03T06:55:55.980Z,7.70
2022-11-03T06:58:31.904Z,7.90
2022-11-03T07:01:04.498Z,7.90
2022-11-03T07:03:35.322Z,7.80
2022-11-03T07:06:07.028Z,8.00
2022-11-03T07:08:38.351Z,8.10
2022-11-03T07:11:15.623Z,8.10
2022-11-03T07:13:44.481Z,8.10
2022-11-03T07:16:19.819Z,7.80
2022-11-03T07:18:48.863Z,7.90
2022-11-03T07:21:30.096Z,7.80
2022-11-03T07:23:58.827Z,7.90
2022-11-03T07:26:27.631Z,8.00
2022-11-03T07:28:56.416Z,8.00
2022-11-03T07:31:27.442Z,8.00
2022-11-03T07:33:59.127Z,8.10
2022-11-03T07:36:32.179Z,8.10
2022-11-03T07:39:02.451Z,8.20
2022-11-03T07:41:34.702Z,8.30
2022-11-03T07:44:03.661Z,8.40
2022-11-03T07:46:33.121Z,8.40
2022-11-03T07:49:04.534Z,8.50
2022-11-03T07:51:34.478Z,8.60
2022-11-03T07:54:10.619Z,8.60
2022-11-03T07:56:43.366Z,8.60
2022-11-03T07:59:17.462Z,8.70
2022-11-03T08:01:50.557Z,8.80
2022-11-03T08:04:22.422Z,8.90
2022-11-03T08:06:51.395Z,8.90
2022-11-03T08:09:19.665Z,9.00
2022-11-03T08:11:48.000Z,9.00
2022-11-03T08:14:16.313Z,9.10
2022-11-03T08:16:46.061Z,9.20
2022-11-03T08:19:14.296Z,9.30
2022-11-03T08:21:42.530Z,9.30
2022-11-03T08:24:10.641Z,9.40
2022-11-03T08:26:39.067Z,9.50
2022-11-03T08:29:07.209Z,9.50
2022-11-03T08:31:35.427Z,9.50
2022-11-03T08:34:04.957Z,9.60
2022-11-03T08:36:33.229Z,9.70
2022-11-03T08:39:01.360Z,9.80
2022-11-03T08:41:29.781Z,9.80
2022-11-03T08:43:57.998Z,9.80
2022-11-03T08:46:26.266Z,9.90
2022-11-03T08:48:54.545Z,10.00
2022-11-03T08:51:24.110Z,10.00
2022-11-03T08:53:54.074Z,9.90
2022-11-03T08:56:22.898Z,10.00
2022-11-03T08:58:51.482Z,10.30
2022-11-03T09:01:19.760Z,10.10
2022-11-03T09:03:48.289Z,10.20
2022-11-03T09:06:16.620Z,10.30
2022-11-03T09:11:34.758Z,10.40
2022-11-03T09:14:02.854Z,10.50
2022-11-03T09:16:31.095Z,10.50
2022-11-03T09:18:59.292Z,10.50
2022-11-03T09:21:27.566Z,10.60
2022-11-03T09:23:59.433Z,10.60
2022-11-03T09:26:27.820Z,10.60
2022-11-03T09:28:55.951Z,10.70
2022-11-03T09:31:26.041Z,10.70
2022-11-03T09:33:54.221Z,10.80
2022-11-03T09:36:22.433Z,10.80
2022-11-03T09:38:50.987Z,10.80
2022-11-03T09:41:27.745Z,10.90
2022-11-03T09:44:03.850Z,10.90
2022-11-03T09:46:32.891Z,11.10
2022-11-03T09:49:01.163Z,11.10
2022-11-03T09:51:29.952Z,11.20
2022-11-03T09:54:04.824Z,11.10
2022-11-03T09:56:37.423Z,11.20
2022-11-03T09:59:15.354Z,11.30
2022-11-03T10:01:45.725Z,11.30
2022-11-03T10:04:14.559Z,11.30
2022-11-03T10:06:42.900Z,11.40
2022-11-03T10:09:17.476Z,11.50
2022-11-03T10:11:47.641Z,11.50
2022-11-03T10:14:18.750Z,11.60
2022-11-03T10:16:53.987Z,11.60
2022-11-03T10:19:22.269Z,11.80
2022-11-03T10:21:50.575Z,11.70
2022-11-03T10:24:19.446Z,11.70
2022-11-03T10:26:50.449Z,11.80
2022-11-03T10:29:21.115Z,11.90
2022-11-03T10:31:51.528Z,12.00
2022-11-03T10:34:28.665Z,12.10
2022-11-03T10:37:24.396Z,12.00
2022-11-03T10:39:54.805Z,12.00
2022-11-03T10:42:28.164Z,12.10
2022-11-03T10:45:13.182Z,12.20
2022-11-03T10:47:41.407Z,12.20
2022-11-03T10:50:23.992Z,12.30
2022-11-03T10:52:52.584Z,12.30
2022-11-03T10:55:25.103Z,12.30
2022-11-03T10:57:56.703Z,12.30
2022-11-03T11:00:25.602Z,12.40
2022-11-03T11:03:01.234Z,12.80
2022-11-03T11:05:29.603Z,12.70
2022-11-03T11:08:00.034Z,12.60
2022-11-03T11:10:31.361Z,12.60
2022-11-03T11:13:27.499Z,12.70
2022-11-03T11:15:57.655Z,12.70
2022-11-03T11:19:12.616Z,12.50
2022-11-03T11:22:02.827Z,12.40
2022-11-03T11:25:00.483Z,12.50
2022-11-03T11:28:06.627Z,12.50
2022-11-03T11:31:19.963Z,12.50
2022-11-03T11:33:49.994Z,12.60
2022-11-03T11:36:23.674Z,12.70
2022-11-03T11:39:02.552Z,12.80
2022-11-03T11:42:11.913Z,12.90
2022-11-03T11:44:58.801Z,12.90
2022-11-03T11:47:52.663Z,13.00
2022-11-03T11:50:34.575Z,13.00
2022-11-03T11:53:10.193Z,13.10
2022-11-03T11:55:43.430Z,13.10
2022-11-03T11:58:20.009Z,13.10
2022-11-03T12:00:57.228Z,13.10
2022-11-03T12:03:32.247Z,13.10
2022-11-03T12:06:02.005Z,13.10
2022-11-03T12:08:32.185Z,13.20
2022-11-03T12:11:02.868Z,13.20
2022-11-03T12:13:48.646Z,13.20
2022-11-03T12:16:36.044Z,13.20
2022-11-03T12:19:35.715Z,13.00
2022-11-03T12:22:06.414Z,13.20
2022-11-03T12:24:38.461Z,13.40
2022-11-03T12:27:41.395Z,13.30
2022-11-03T12:30:15.557Z,13.30
2022-11-03T12:32:44.000Z,13.30
2022-11-03T12:35:13.723Z,13.40
2022-11-03T12:37:43.373Z,13.60
2022-11-03T12:40:14.048Z,13.80
2022-11-03T12:42:42.333Z,13.90
2022-11-03T12:45:13.808Z,14.00
2022-11-03T12:47:42.321Z,14.00
2022-11-03T12:50:11.153Z,13.70
2022-11-03T12:52:39.509Z,13.70
2022-11-03T12:55:09.812Z,13.80
2022-11-03T12:57:38.118Z,13.60
2022-11-03T13:00:07.494Z,13.70
2022-11-03T13:02:35.972Z,13.70
2022-11-03T13:05:04.516Z,13.70
2022-11-03T13:07:35.009Z,13.80
2022-11-03T13:10:04.976Z,13.80
2022-11-03T13:12:36.649Z,13.70
2022-11-03T13:15:08.054Z,13.70
2022-11-03T13:17:59.167Z,13.50
2022-11-03T13:20:24.659Z,13.50
2022-11-03T13:22:52.967Z,13.40
2022-11-03T13:25:21.336Z,13.50
2022-11-03T13:27:54.086Z,13.50
2022-11-03T13:30:22.730Z,13.50
2022-11-03T13:32:50.964Z,13.60
2022-11-03T13:35:19.558Z,13.70
2022-11-03T13:37:48.171Z,13.70
2022-11-03T13:40:50.397Z,13.70
2022-11-03T13:43:07.103Z,13.70
2022-11-03T13:45:35.615Z,13.60
2022-11-03T13:50:53.648Z,13.40
2022-11-03T13:56:15.208Z,13.10
2022-11-03T14:01:41.110Z,12.90
2022-11-03T14:06:58.538Z,12.90
2022-11-03T14:09:26.803Z,13.00
2022-11-03T14:12:12.613Z,12.90
2022-11-03T14:14:42.294Z,12.70
2022-11-03T14:17:10.681Z,12.50
2022-11-03T14:19:44.777Z,12.40
2022-11-03T14:22:14.373Z,12.30
2022-11-03T14:24:42.571Z,12.30
2022-11-03T14:27:10.732Z,12.10
2022-11-03T14:29:38.961Z,12.20
2022-11-03T14:32:08.595Z,12.10
2022-11-03T14:34:36.820Z,11.90
2022-11-03T14:37:05.249Z,11.80
2022-11-03T14:39:33.479Z,11.70
2022-11-03T14:42:03.717Z,11.50
2022-11-03T14:44:32.349Z,11.40
2022-11-03T14:47:01.526Z,11.40
2022-11-03T14:49:31.660Z,11.20
2022-11-03T14:52:01.731Z,11.10
2022-11-03T14:54:31.355Z,11.10
2022-11-03T14:56:59.844Z,11.00
2022-11-03T14:59:28.081Z,10.90
2022-11-03T15:01:56.663Z,10.70
2022-11-03T15:04:25.105Z,10.80
2022-11-03T15:06:54.672Z,10.70
2022-11-03T15:09:22.970Z,10.60
2022-11-03T15:11:51.164Z,10.60
2022-11-03T15:14:19.260Z,10.40
2022-11-03T15:16:48.196Z,10.40
2022-11-03T15:19:16.434Z,10.30
2022-11-03T15:21:44.611Z,10.20
2022-11-03T15:27:02.409Z,10.00
2022-11-03T15:29:30.621Z,9.80
2022-11-03T15:31:58.816Z,9.80
2022-11-03T15:34:26.977Z,9.70
2022-11-03T15:36:55.272Z,9.60
2022-11-03T15:39:24.815Z,9.50
2022-11-03T15:41:53.039Z,9.50
2022-11-03T15:44:21.242Z,9.30
2022-11-03T15:46:49.540Z,9.30
2022-11-03T15:49:17.657Z,9.10
2022-11-03T15:51:45.903Z,9.20
2022-11-03T15:54:14.057Z,9.20
2022-11-03T15:56:43.706Z,9.10
2022-11-03T15:59:11.871Z,8.90
2022-11-03T16:01:40.219Z,8.90
2022-11-03T16:04:08.411Z,8.80
2022-11-03T16:09:24.875Z,9.00
2022-11-03T16:11:54.491Z,8.90
2022-11-03T16:14:22.737Z,8.80
2022-11-03T16:16:50.862Z,8.80
2022-11-03T16:19:19.096Z,8.80
2022-11-03T16:21:47.203Z,8.90
2022-11-03T16:24:15.426Z,8.80
2022-11-03T16:26:43.671Z,8.80
2022-11-03T16:29:13.228Z,8.70
2022-11-03T16:31:41.454Z,8.80
2022-11-03T16:34:10.039Z,8.60
2022-11-03T16:36:38.194Z,8.60
2022-11-03T16:39:06.441Z,8.50
2022-11-03T16:41:34.670Z,8.50
2022-11-03T16:44:02.908Z,8.30
2022-11-03T16:46:32.427Z,8.40
2022-11-03T16:51:33.874Z,8.50
2022-11-03T16:54:02.187Z,8.40
2022-11-03T16:56:30.382Z,8.30
2022-11-03T16:58:58.570Z,8.40
2022-11-03T17:01:27.519Z,8.40
2022-11-03T17:03:57.182Z,8.50
2022-11-03T17:06:25.464Z,8.30
2022-11-03T17:08:54.001Z,8.20
2022-11-03T17:14:16.370Z,8.10
2022-11-03T17:16:46.664Z,8.20
2022-11-03T17:19:14.934Z,8.30
2022-11-03T17:21:43.356Z,8.20
2022-11-03T17:24:13.455Z,8.10
2022-11-03T17:26:51.831Z,7.80
2022-11-03T17:29:25.023Z,7.80
2022-11-03T17:31:53.307Z,7.80
2022-11-03T17:34:25.126Z,7.60
2022-11-03T17:36:54.299Z,7.50
2022-11-03T17:39:29.254Z,7.30
2022-11-03T17:42:11.656Z,7.30
2022-11-03T17:44:41.250Z,7.20
2022-11-03T17:47:09.421Z,7.20
2022-11-03T17:49:37.718Z,7.20
2022-11-03T17:52:06.183Z,7.30
2022-11-03T17:54:34.559Z,7.20
2022-11-03T17:57:04.682Z,7.30
2022-11-03T17:59:34.482Z,7.30
2022-11-03T18:02:04.690Z,7.10
2022-11-03T18:04:33.018Z,7.30
2022-11-03T18:07:01.705Z,7.20
2022-11-03T18:09:29.923Z,7.10
2022-11-03T18:12:15.580Z,7.10
2022-11-03T18:14:43.932Z,7.00
2022-11-03T18:17:13.459Z,7.00
2022-11-03T18:19:41.844Z,7.10
2022-11-03T18:22:10.494Z,7.00
2022-11-03T18:24:38.826Z,6.90
2022-11-03T18:27:11.871Z,6.90
2022-11-03T18:29:40.091Z,6.80
2022-11-03T18:32:15.888Z,6.90
2022-11-03T18:34:44.424Z,6.80
2022-11-03T18:37:13.127Z,6.70
2022-11-03T18:39:41.652Z,7.00
2022-11-03T18:42:14.537Z,7.00
2022-11-03T18:44:43.291Z,7.10
2022-11-03T18:47:13.234Z,7.20
2022-11-03T18:49:41.723Z,7.10
2022-11-03T18:52:14.914Z,7.00
2022-11-03T18:54:47.037Z,7.00
2022-11-03T18:57:16.680Z,7.00
2022-11-03T18:59:45.878Z,6.80
2022-11-03T19:02:19.711Z,6.70
2022-11-03T19:04:48.386Z,6.70
2022-11-03T19:07:18.943Z,6.80
2022-11-03T19:09:47.483Z,6.80
2022-11-03T19:12:16.596Z,6.90
2022-11-03T19:14:46.546Z,6.90
2022-11-03T19:17:24.243Z,6.80
2022-11-03T19:19:55.734Z,6.70
2022-11-03T19:22:24.888Z,6.70
2022-11-03T19:24:53.046Z,6.60
2022-11-03T19:27:28.853Z,6.50
2022-11-03T19:29:58.571Z,6.50
2022-11-03T19:32:31.563Z,6.40
2022-11-03T19:35:02.940Z,6.40
2022-11-03T19:37:35.839Z,6.30
2022-11-03T19:40:09.193Z,6.30
2022-11-03T19:42:37.117Z,6.20
2022-11-03T19:45:07.811Z,6.20
2022-11-03T19:47:57.593Z,6.20
2022-11-03T19:50:33.916Z,6.30
2022-11-03T19:53:04.300Z,6.40
2022-11-03T19:55:35.130Z,6.40
2022-11-03T19:58:12.391Z,6.40
2022-11-03T20:00:40.948Z,6.40
2022-11-03T20:03:10.747Z,6.30
2022-11-03T20:05:39.548Z,6.20
2022-11-03T20:08:12.275Z,6.20
2022-11-03T20:10:40.804Z,6.20
2022-11-03T20:13:13.444Z,6.10
2022-11-03T20:15:41.750Z,6.10
2022-11-03T20:18:13.458Z,6.10
2022-11-03T20:20:43.333Z,6.00
2022-11-03T20:23:19.442Z,5.90
2022-11-03T20:25:48.215Z,5.80
2022-11-03T20:28:20.708Z,5.80
2022-11-03T20:30:49.505Z,5.60
2022-11-03T20:33:21.225Z,5.80
2022-11-03T20:35:50.756Z,5.70
2022-11-03T20:38:20.690Z,5.70
2022-11-03T20:40:55.750Z,5.70
2022-11-03T20:43:26.962Z,5.60
2022-11-03T20:45:55.375Z,5.50
2022-11-03T20:48:25.362Z,5.50
2022-11-03T20:50:54.918Z,5.40
2022-11-03T20:53:25.498Z,5.40
2022-11-03T20:55:54.749Z,5.40
2022-11-03T20:58:22.894Z,5.50
2022-11-03T21:00:51.422Z,5.40
2022-11-03T21:03:38.120Z,5.40
2022-11-03T21:06:14.864Z,5.60
2022-11-03T21:08:43.124Z,5.60
2022-11-03T21:11:27.681Z,5.60
2022-11-03T21:13:58.890Z,5.80
2022-11-03T21:16:42.152Z,5.70
2022-11-03T21:19:33.520Z,5.80
2022-11-03T21:22:03.438Z,5.80
2022-11-03T21:24:31.598Z,5.70
2022-11-03T21:27:00.043Z,5.70
2022-11-03T21:29:53.326Z,5.80
2022-11-03T21:32:17.840Z,5.80
2022-11-03T21:34:46.067Z,5.80
2022-11-03T21:37:16.805Z,5.90
2022-11-03T21:39:45.440Z,5.80
2022-11-03T21:42:33.099Z,5.80
2022-11-03T21:45:01.945Z,5.80
2022-11-03T21:47:30.322Z,5.80
2022-11-03T21:49:57.663Z,5.70
2022-11-03T21:52:32.740Z,5.60
2022-11-03T21:55:01.778Z,5.50
2022-11-03T21:57:30.138Z,5.40
2022-11-03T21:59:59.311Z,5.60
2022-11-03T22:02:30.122Z,5.50
2022-11-03T22:04:58.703Z,5.50
2022-11-03T22:07:33.097Z,5.50
2022-11-03T22:10:01.395Z,5.50
2022-11-03T22:12:29.662Z,5.50
2022-11-03T22:15:30.346Z,5.40
2022-11-03T22:18:01.829Z,5.40
2022-11-03T22:20:47.907Z,5.50
2022-11-03T22:23:34.719Z,5.30
2022-11-03T22:26:20.607Z,5.30
2022-11-03T22:29:09.573Z,5.40
2022-11-03T22:31:43.058Z,5.40
2022-11-03T22:34:29.077Z,5.40
2022-11-03T22:36:57.600Z,5.50
2022-11-03T22:39:44.731Z,5.50
2022-11-03T22:42:30.964Z,5.50
2022-11-03T22:45:16.575Z,5.40
2022-11-03T22:47:44.936Z,5.50
2022-11-03T22:50:13.112Z,5.60
2022-11-03T22:52:41.270Z,5.60
2022-11-03T22:55:09.863Z,5.60
2022-11-03T22:57:38.184Z,5.60
2022-11-03T23:00:07.075Z,5.70
2022-11-03T23:02:35.420Z,5.70
2022-11-03T23:05:03.637Z,5.70
2022-11-03T23:07:35.822Z,5.60
2022-11-03T23:10:07.594Z,5.60
2022-11-03T23:12:39.675Z,5.60
2022-11-03T23:15:26.846Z,5.70
2022-11-03T23:18:12.431Z,5.60
2022-11-03T23:20:58.036Z,5.60
2022-11-03T23:23:43.949Z,5.60
2022-11-03T23:26:12.307Z,5.60
2022-11-03T23:28:41.986Z,5.60
2022-11-03T23:31:10.829Z,5.60
2022-11-03T23:33:39.358Z,5.60
2022-11-03T23:36:09.783Z,5.60
2022-11-03T23:38:38.466Z,5.60
2022-11-03T23:41:08.817Z,5.60
2022-11-03T23:43:37.702Z,5.50
2022-11-03T23:46:25.323Z,5.50
2022-11-03T23:48:54.011Z,5.50
2022-11-03T23:51:24.118Z,5.40
2022-11-03T23:53:52.802Z,5.30
2022-11-03T23:56:40.321Z,5.40
2022-11-03T23:59:09.719Z,5.40
